createdAt,value
2022-12-13T00:00:28.641Z,6.85
2022-12-13T00:01:32.372Z,7.57
2022-12-13T00:02:34.731Z,7.22
2022-12-13T00:03:37.084Z,7.63
2022-12-13T00:04:39.313Z,7.07
2022-12-13T00:05:45.043Z,7.63
2022-12-13T00:06:47.633Z,7.18
2022-12-13T00:07:49.939Z,7.25
2022-12-13T00:08:52.762Z,7.88
2022-12-13T00:09:55.073Z,8.07
2022-12-13T00:11:07.126Z,7.00
2022-12-13T00:13:11.753Z,7.38
2022-12-13T00:14:15.413Z,8.45
2022-12-13T00:15:18.954Z,7.47
2022-12-13T00:16:23.548Z,8.40
2022-12-13T00:17:25.888Z,7.82
2022-12-13T00:18:28.580Z,7.63
2022-12-13T00:19:30.841Z,7.75
2022-12-13T00:20:33.116Z,7.15
2022-12-13T00:21:35.354Z,7.82
2022-12-13T00:22:37.908Z,8.02
2022-12-13T00:23:40.233Z,8.02
2022-12-13T00:24:46.117Z,7.70
2022-12-13T00:25:48.623Z,7.85
2022-12-13T00:26:54.217Z,7.50
2022-12-13T00:27:57.051Z,8.05
2022-12-13T00:29:05.403Z,7.78
2022-12-13T00:30:08.152Z,7.43
2022-12-13T00:31:51.705Z,7.65
2022-12-13T00:32:33.024Z,8.02
2022-12-13T00:33:37.225Z,7.22
2022-12-13T00:34:39.507Z,7.38
2022-12-13T00:35:42.382Z,8.07
2022-12-13T00:36:44.904Z,7.43
2022-12-13T00:37:47.216Z,8.18
2022-12-13T00:39:00.407Z,7.85
2022-12-13T00:40:03.057Z,7.55
2022-12-13T00:41:16.799Z,7.07
2022-12-13T00:42:19.073Z,6.85
2022-12-13T00:43:22.185Z,7.75
2022-12-13T00:44:25.229Z,6.95
2022-12-13T00:45:28.865Z,7.85
2022-12-13T00:46:31.903Z,7.70
2022-12-13T00:47:34.297Z,7.63
2022-12-13T00:48:37.387Z,7.00
2022-12-13T00:49:39.853Z,6.80
2022-12-13T00:50:42.264Z,7.43
2022-12-13T00:51:44.510Z,7.13
2022-12-13T00:52:46.815Z,8.02
2022-12-13T00:53:49.544Z,7.72
2022-12-13T00:54:51.909Z,7.38
2022-12-13T00:55:54.305Z,8.02
2022-12-13T00:56:56.741Z,7.68
2022-12-13T00:57:59.184Z,7.20
2022-12-13T00:59:01.564Z,8.05
2022-12-13T01:00:05.168Z,7.70
2022-12-13T01:01:10.675Z,7.07
2022-12-13T01:02:13.091Z,7.60
2022-12-13T01:03:25.251Z,8.20
2022-12-13T01:04:27.582Z,7.05
2022-12-13T01:06:11.181Z,7.60
2022-12-13T01:06:52.195Z,7.65
2022-12-13T01:07:54.523Z,7.72
2022-12-13T01:08:57.028Z,7.43
2022-12-13T01:10:01.156Z,7.30
2022-12-13T01:11:05.331Z,7.45
2022-12-13T01:12:08.027Z,7.47
2022-12-13T01:13:10.449Z,6.95
2022-12-13T01:14:12.930Z,7.65
2022-12-13T01:15:15.466Z,8.15
2022-12-13T01:16:18.677Z,7.50
2022-12-13T01:17:21.304Z,7.78
2022-12-13T01:18:23.806Z,8.00
2022-12-13T01:19:27.752Z,7.78
2022-12-13T01:20:30.010Z,8.50
2022-12-13T01:21:32.346Z,8.27
2022-12-13T01:22:34.568Z,8.93
2022-12-13T01:23:36.975Z,8.30
2022-12-13T01:24:39.264Z,8.40
2022-12-13T01:25:41.526Z,8.40
2022-12-13T01:26:43.769Z,8.00
2022-12-13T01:27:46.072Z,8.60
2022-12-13T01:28:49.048Z,7.80
2022-12-13T01:29:51.294Z,7.68
2022-12-13T01:30:58.423Z,7.70
2022-12-13T01:32:00.779Z,7.80
2022-12-13T01:33:03.067Z,7.78
2022-12-13T01:34:19.753Z,55.67
2022-12-13T01:35:22.033Z,116.95
2022-12-13T01:36:27.301Z,81.82
2022-12-13T01:37:30.572Z,74.72
2022-12-13T01:38:37.967Z,59.05
2022-12-13T01:39:40.771Z,50.72
2022-12-13T01:40:57.777Z,37.53
2022-12-13T01:42:04.145Z,33.03
2022-12-13T01:43:14.377Z,28.23
2022-12-13T01:44:54.698Z,25.80
2022-12-13T01:45:57.088Z,23.45
2022-12-13T01:46:59.404Z,22.88
2022-12-13T01:48:04.993Z,24.67
2022-12-13T01:49:19.620Z,21.35
2022-12-13T01:50:30.594Z,21.63
2022-12-13T01:51:47.172Z,22.17
2022-12-13T01:52:50.307Z,20.55
2022-12-13T01:53:53.820Z,20.85
2022-12-13T01:55:03.189Z,18.92
2022-12-13T01:56:12.782Z,18.75
2022-12-13T01:57:17.912Z,17.85
2022-12-13T01:58:21.629Z,17.23
2022-12-13T01:59:24.423Z,17.33
2022-12-13T02:00:27.541Z,16.85
2022-12-13T02:01:30.524Z,17.10
2022-12-13T02:02:32.847Z,16.40
2022-12-13T02:03:35.526Z,15.32
2022-12-13T02:04:55.707Z,21.00
2022-12-13T02:06:21.884Z,40.20
2022-12-13T02:07:29.319Z,45.95
2022-12-13T02:08:35.804Z,24.98
2022-12-13T02:09:38.885Z,20.77
2022-12-13T02:10:43.583Z,19.83
2022-12-13T02:11:46.244Z,19.02
2022-12-13T02:12:48.799Z,19.15
2022-12-13T02:13:51.297Z,17.95
2022-12-13T02:14:54.676Z,17.92
2022-12-13T02:16:22.028Z,18.13
2022-12-13T02:18:04.952Z,17.17
2022-12-13T02:19:34.922Z,17.25
2022-12-13T02:20:57.710Z,16.83
2022-12-13T02:22:11.651Z,17.60
2022-12-13T02:23:52.581Z,16.60
2022-12-13T02:25:20.843Z,15.70
2022-12-13T02:26:55.631Z,15.77
2022-12-13T02:28:30.879Z,15.45
2022-12-13T02:29:56.314Z,15.80
2022-12-13T02:31:23.781Z,16.60
2022-12-13T02:32:57.464Z,16.00
2022-12-13T02:34:13.707Z,15.95
2022-12-13T02:35:25.019Z,17.08
2022-12-13T02:36:27.249Z,17.85
2022-12-13T02:37:57.246Z,16.63
2022-12-13T02:39:30.514Z,15.75
2022-12-13T02:40:43.274Z,13.77
2022-12-13T02:41:51.057Z,14.43
2022-12-13T02:43:04.877Z,13.27
2022-12-13T02:44:22.489Z,16.10
2022-12-13T02:45:57.934Z,13.45
2022-12-13T02:47:12.824Z,15.07
2022-12-13T02:48:30.178Z,13.82
2022-12-13T02:49:36.897Z,13.48
2022-12-13T02:50:40.412Z,15.90
2022-12-13T02:51:44.478Z,14.27
2022-12-13T02:52:47.348Z,12.38
2022-12-13T02:53:49.791Z,11.65
2022-12-13T02:54:55.262Z,12.50
2022-12-13T02:55:57.558Z,11.57
2022-12-13T02:57:02.889Z,12.15
2022-12-13T02:58:05.269Z,11.38
2022-12-13T02:59:13.147Z,11.57
2022-12-13T03:00:28.050Z,12.23
2022-12-13T03:02:10.257Z,11.63
2022-12-13T03:03:35.292Z,10.38
2022-12-13T03:05:23.977Z,11.00
2022-12-13T03:06:53.857Z,10.40
2022-12-13T03:08:08.255Z,10.48
2022-12-13T03:09:33.057Z,11.18
2022-12-13T03:10:52.140Z,10.27
2022-12-13T03:12:37.018Z,9.82
2022-12-13T03:13:54.438Z,9.85
2022-12-13T03:15:14.324Z,11.02
2022-12-13T03:16:36.524Z,10.13
2022-12-13T03:17:45.798Z,10.10
2022-12-13T03:18:50.253Z,9.93
2022-12-13T03:19:54.047Z,9.73
2022-12-13T03:21:01.968Z,9.52
2022-12-13T03:22:06.545Z,9.75
2022-12-13T03:23:11.175Z,9.43
2022-12-13T03:24:13.763Z,10.13
2022-12-13T03:25:32.235Z,10.52
2022-12-13T03:26:37.199Z,10.38
2022-12-13T03:27:39.534Z,10.32
2022-12-13T03:28:41.987Z,10.38
2022-12-13T03:29:44.413Z,9.43
2022-12-13T03:30:46.754Z,10.52
2022-12-13T03:31:49.180Z,9.27
2022-12-13T03:32:51.384Z,10.77
2022-12-13T03:33:53.671Z,10.23
2022-12-13T03:35:00.623Z,9.50
2022-12-13T03:36:03.599Z,9.15
2022-12-13T03:37:05.904Z,9.65
2022-12-13T03:38:08.941Z,9.90
2022-12-13T03:39:11.224Z,10.70
2022-12-13T03:40:13.700Z,9.25
2022-12-13T03:41:20.204Z,9.00
2022-12-13T03:42:22.652Z,9.32
2022-12-13T03:43:25.526Z,9.32
2022-12-13T03:44:31.721Z,9.55
2022-12-13T03:45:34.204Z,9.77
2022-12-13T03:46:36.500Z,9.45
2022-12-13T03:47:38.841Z,10.20
2022-12-13T03:48:41.381Z,10.35
2022-12-13T03:49:43.768Z,9.18
2022-12-13T03:50:46.912Z,9.63
2022-12-13T03:51:49.223Z,9.27
2022-12-13T03:52:59.541Z,10.02
2022-12-13T03:54:01.889Z,9.77
2022-12-13T03:55:04.839Z,9.65
2022-12-13T03:56:07.354Z,9.55
2022-12-13T03:57:09.636Z,9.30
2022-12-13T03:58:11.890Z,10.45
2022-12-13T03:59:15.247Z,9.25
2022-12-13T04:00:17.651Z,9.75
2022-12-13T04:01:20.334Z,9.00
2022-12-13T04:02:31.490Z,8.88
2022-12-13T04:04:36.256Z,9.60
2022-12-13T04:05:38.629Z,9.35
2022-12-13T04:06:40.990Z,10.38
2022-12-13T04:07:47.945Z,8.65
2022-12-13T04:08:51.866Z,9.00
2022-12-13T04:09:54.315Z,9.35
2022-12-13T04:10:56.685Z,9.13
2022-12-13T04:12:17.700Z,9.68
2022-12-13T04:13:35.181Z,9.23
2022-12-13T04:14:37.435Z,9.27
2022-12-13T04:15:40.273Z,9.27
2022-12-13T04:16:42.506Z,9.23
2022-12-13T04:17:44.848Z,8.52
2022-12-13T04:18:53.589Z,8.32
2022-12-13T04:19:55.824Z,8.98
2022-12-13T04:20:58.087Z,9.23
2022-12-13T04:22:00.357Z,9.02
2022-12-13T04:23:10.354Z,9.23
2022-12-13T04:24:13.096Z,9.18
2022-12-13T04:25:15.764Z,8.20
2022-12-13T04:26:18.252Z,8.63
2022-12-13T04:27:20.572Z,8.63
2022-12-13T04:28:23.279Z,8.73
2022-12-13T04:29:25.717Z,8.95
2022-12-13T04:31:40.611Z,8.65
2022-12-13T04:32:43.043Z,9.18
2022-12-13T04:33:45.723Z,9.45
2022-12-13T04:34:48.033Z,9.57
2022-12-13T04:35:50.829Z,8.75
2022-12-13T04:36:53.066Z,8.95
2022-12-13T04:37:56.917Z,9.02
2022-12-13T04:39:03.011Z,8.10
2022-12-13T04:40:06.002Z,8.40
2022-12-13T04:41:17.371Z,8.98
2022-12-13T04:43:22.281Z,8.65
2022-12-13T04:44:28.809Z,8.45
2022-12-13T04:45:32.230Z,8.68
2022-12-13T04:46:34.951Z,9.13
2022-12-13T04:47:37.241Z,9.07
2022-12-13T04:48:39.564Z,9.52
2022-12-13T04:49:41.916Z,8.68
2022-12-13T04:50:45.349Z,8.60
2022-12-13T04:51:47.921Z,8.68
2022-12-13T04:52:50.250Z,9.00
2022-12-13T04:53:52.550Z,8.85
2022-12-13T04:54:55.618Z,7.30
2022-12-13T04:55:59.608Z,8.25
2022-12-13T04:57:01.978Z,7.95
2022-12-13T04:58:04.274Z,8.50
2022-12-13T04:59:06.631Z,8.57
2022-12-13T05:00:13.033Z,9.50
2022-12-13T05:01:15.590Z,8.38
2022-12-13T05:02:23.201Z,8.40
2022-12-13T05:03:27.899Z,8.05
2022-12-13T05:04:32.873Z,8.57
2022-12-13T05:05:39.452Z,9.20
2022-12-13T05:06:41.774Z,8.60
2022-12-13T05:07:44.007Z,8.50
2022-12-13T05:08:46.270Z,8.65
2022-12-13T05:09:48.827Z,9.18
2022-12-13T05:10:51.079Z,8.27
2022-12-13T05:11:53.348Z,8.45
2022-12-13T05:13:04.841Z,8.35
2022-12-13T05:14:07.116Z,10.77
2022-12-13T05:15:09.574Z,9.13
2022-12-13T05:16:12.532Z,8.93
2022-12-13T05:17:14.959Z,9.05
2022-12-13T05:18:17.359Z,9.68
2022-12-13T05:19:19.808Z,10.52
2022-12-13T05:20:22.366Z,11.32
2022-12-13T05:21:24.779Z,13.55
2022-12-13T05:22:27.153Z,15.02
2022-12-13T05:23:29.434Z,12.95
2022-12-13T05:24:31.976Z,11.20
2022-12-13T05:25:36.736Z,10.65
2022-12-13T05:26:39.497Z,9.43
2022-12-13T05:27:41.844Z,8.82
2022-12-13T05:28:44.155Z,9.20
2022-12-13T05:29:46.517Z,9.77
2022-12-13T05:30:48.797Z,8.25
2022-12-13T05:31:51.200Z,8.90
2022-12-13T05:32:54.693Z,9.27
2022-12-13T05:34:01.203Z,8.93
2022-12-13T05:35:04.278Z,8.60
2022-12-13T05:36:07.279Z,8.77
2022-12-13T05:37:09.642Z,9.68
2022-12-13T05:38:11.903Z,9.02
2022-12-13T05:39:27.834Z,9.10
2022-12-13T05:40:32.366Z,9.25
2022-12-13T05:41:36.694Z,11.98
2022-12-13T05:42:39.434Z,141.43
2022-12-13T05:43:43.006Z,142.88
2022-12-13T05:44:46.188Z,99.88
2022-12-13T05:45:48.561Z,70.88
2022-12-13T05:46:50.880Z,57.30
2022-12-13T05:47:53.564Z,47.72
2022-12-13T05:48:55.884Z,45.72
2022-12-13T05:49:59.936Z,45.13
2022-12-13T05:51:10.093Z,39.53
2022-12-13T05:52:18.301Z,33.47
2022-12-13T05:53:30.393Z,32.58
2022-12-13T05:54:33.494Z,30.67
2022-12-13T05:55:37.516Z,24.45
2022-12-13T05:56:40.082Z,22.08
2022-12-13T05:57:42.447Z,19.80
2022-12-13T05:58:54.148Z,83.40
2022-12-13T05:59:57.666Z,105.97
2022-12-13T06:01:08.283Z,80.93
2022-12-13T06:02:10.665Z,59.78
2022-12-13T06:03:13.106Z,53.42
2022-12-13T06:04:22.994Z,48.92
2022-12-13T06:05:25.847Z,35.65
2022-12-13T06:06:29.257Z,27.65
2022-12-13T06:07:32.067Z,26.08
2022-12-13T06:08:34.673Z,24.85
2022-12-13T06:09:39.898Z,22.77
2022-12-13T06:10:42.773Z,22.90
2022-12-13T06:11:45.189Z,21.33
2022-12-13T06:12:47.455Z,21.73
2022-12-13T06:13:52.520Z,19.77
2022-12-13T06:15:05.393Z,18.88
2022-12-13T06:16:25.514Z,18.88
2022-12-13T06:17:35.538Z,20.90
2022-12-13T06:18:37.804Z,19.88
2022-12-13T06:19:40.091Z,18.88
2022-12-13T06:20:42.433Z,18.98
2022-12-13T06:21:46.539Z,18.77
2022-12-13T06:22:49.036Z,17.35
2022-12-13T06:23:51.317Z,18.00
2022-12-13T06:24:53.805Z,18.80
2022-12-13T06:25:56.947Z,16.73
2022-12-13T06:27:00.144Z,17.63
2022-12-13T06:28:03.087Z,17.05
2022-12-13T06:29:05.376Z,17.73
2022-12-13T06:30:08.311Z,17.73
2022-12-13T06:31:10.967Z,36.53
2022-12-13T06:32:13.252Z,31.63
2022-12-13T06:33:15.662Z,40.38
2022-12-13T06:34:26.065Z,29.50
2022-12-13T06:35:30.215Z,25.05
2022-12-13T06:36:33.862Z,20.20
2022-12-13T06:37:36.132Z,18.92
2022-12-13T06:38:43.185Z,19.23
2022-12-13T06:39:46.844Z,18.33
2022-12-13T06:40:49.063Z,16.90
2022-12-13T06:41:51.454Z,15.93
2022-12-13T06:42:53.707Z,16.58
2022-12-13T06:43:55.928Z,15.63
2022-12-13T06:44:58.195Z,16.02
2022-12-13T06:46:03.810Z,16.15
2022-12-13T06:47:11.197Z,15.82
2022-12-13T06:48:19.999Z,15.43
2022-12-13T06:49:22.708Z,16.05
2022-12-13T06:50:25.057Z,17.02
2022-12-13T06:51:32.970Z,15.52
2022-12-13T06:52:36.511Z,16.58
2022-12-13T06:53:40.243Z,15.88
2022-12-13T06:54:43.582Z,21.83
2022-12-13T06:55:45.911Z,17.70
2022-12-13T06:56:48.179Z,17.00
2022-12-13T06:57:50.541Z,16.25
2022-12-13T06:58:52.763Z,15.13
2022-12-13T07:00:05.071Z,15.60
2022-12-13T07:01:24.427Z,14.48
2022-12-13T07:02:27.486Z,15.02
2022-12-13T07:03:30.136Z,15.38
2022-12-13T07:04:33.069Z,14.95
2022-12-13T07:05:37.315Z,14.55
2022-12-13T07:06:45.614Z,13.75
2022-12-13T07:07:48.145Z,14.40
2022-12-13T07:08:56.180Z,13.73
2022-12-13T07:09:58.550Z,13.90
2022-12-13T07:11:00.875Z,13.63
2022-12-13T07:12:05.065Z,14.02
2022-12-13T07:13:07.651Z,13.70
2022-12-13T07:14:10.108Z,13.20
2022-12-13T07:15:12.412Z,13.90
2022-12-13T07:16:15.360Z,13.75
2022-12-13T07:17:32.698Z,13.05
2022-12-13T07:18:37.277Z,13.10
2022-12-13T07:19:40.119Z,12.55
2022-12-13T07:20:43.644Z,13.40
2022-12-13T07:21:45.954Z,13.23
2022-12-13T07:22:58.254Z,12.75
2022-12-13T07:24:02.032Z,12.20
2022-12-13T07:25:05.302Z,12.10
2022-12-13T07:26:08.874Z,12.23
2022-12-13T07:27:11.132Z,13.27
2022-12-13T07:28:13.668Z,12.77
2022-12-13T07:29:22.416Z,12.15
2022-12-13T07:30:25.210Z,13.63
2022-12-13T07:31:27.587Z,14.52
2022-12-13T07:32:30.002Z,16.10
2022-12-13T07:33:32.420Z,27.55
2022-12-13T07:34:35.280Z,32.17
2022-12-13T07:35:38.457Z,28.88
2022-12-13T07:36:41.000Z,28.23
2022-12-13T07:37:43.356Z,21.60
2022-12-13T07:38:51.580Z,20.23
2022-12-13T07:39:56.760Z,16.95
2022-12-13T07:41:06.504Z,15.38
2022-12-13T07:42:08.818Z,15.73
2022-12-13T07:43:12.002Z,13.95
2022-12-13T07:44:14.283Z,14.02
2022-12-13T07:45:16.630Z,14.55
2022-12-13T07:46:23.470Z,13.88
2022-12-13T07:47:35.413Z,13.77
2022-12-13T07:48:38.152Z,12.90
2022-12-13T07:49:40.980Z,13.10
2022-12-13T07:50:43.467Z,12.43
2022-12-13T07:51:45.725Z,12.65
2022-12-13T07:52:48.743Z,13.43
2022-12-13T07:53:51.044Z,15.60
2022-12-13T07:54:53.814Z,13.35
2022-12-13T07:55:56.165Z,13.30
2022-12-13T07:57:04.108Z,14.95
2022-12-13T07:58:12.013Z,13.15
2022-12-13T07:59:14.470Z,14.02
2022-12-13T08:00:17.212Z,13.30
2022-12-13T08:01:19.622Z,13.35
2022-12-13T08:02:21.934Z,13.60
2022-12-13T08:03:26.148Z,12.60
2022-12-13T08:04:29.452Z,13.40
2022-12-13T08:05:39.866Z,13.45
2022-12-13T08:06:42.229Z,12.65
2022-12-13T08:07:44.533Z,13.25
2022-12-13T08:08:50.612Z,10.82
2022-12-13T08:09:53.419Z,11.90
2022-12-13T08:10:55.829Z,12.52
2022-12-13T08:12:05.242Z,12.00
2022-12-13T08:13:07.535Z,12.05
2022-12-13T08:14:10.035Z,12.80
2022-12-13T08:15:14.176Z,12.23
2022-12-13T08:16:26.363Z,11.38
2022-12-13T08:17:31.076Z,11.85
2022-12-13T08:18:33.985Z,12.35
2022-12-13T08:19:36.374Z,11.73
2022-12-13T08:20:38.613Z,12.57
2022-12-13T08:22:01.774Z,10.77
2022-12-13T08:23:04.026Z,13.70
2022-12-13T08:24:08.913Z,23.88
2022-12-13T08:25:17.952Z,14.93
2022-12-13T08:26:20.253Z,12.52
2022-12-13T08:27:22.562Z,12.88
2022-12-13T08:28:25.980Z,13.63
2022-12-13T08:29:33.463Z,12.13
2022-12-13T08:30:37.157Z,13.23
2022-12-13T08:31:39.532Z,12.15
2022-12-13T08:32:41.856Z,12.23
2022-12-13T08:33:46.747Z,13.48
2022-12-13T08:34:49.622Z,12.10
2022-12-13T08:35:51.880Z,12.38
2022-12-13T08:37:01.446Z,11.13
2022-12-13T08:38:05.443Z,11.88
2022-12-13T08:39:07.733Z,12.15
2022-12-13T08:40:10.514Z,12.63
2022-12-13T08:41:13.508Z,12.77
2022-12-13T08:42:19.764Z,12.07
2022-12-13T08:43:24.644Z,11.70
2022-12-13T08:44:27.432Z,10.88
2022-12-13T08:45:31.627Z,11.27
2022-12-13T08:46:33.916Z,11.88
2022-12-13T08:47:41.565Z,12.73
2022-12-13T08:48:45.066Z,11.00
2022-12-13T08:49:47.779Z,12.57
2022-12-13T08:50:50.300Z,11.55
2022-12-13T08:51:52.535Z,10.82
2022-12-13T08:52:54.800Z,11.52
2022-12-13T08:54:11.011Z,11.50
2022-12-13T08:55:15.212Z,10.55
2022-12-13T08:56:21.050Z,10.27
2022-12-13T08:57:23.319Z,10.50
2022-12-13T08:58:25.773Z,10.95
2022-12-13T08:59:28.027Z,10.55
2022-12-13T09:00:35.638Z,11.52
2022-12-13T09:01:38.726Z,10.02
2022-12-13T09:02:41.316Z,10.30
2022-12-13T09:03:43.673Z,10.10
2022-12-13T09:04:46.197Z,10.15
2022-12-13T09:05:48.578Z,10.15
2022-12-13T09:06:50.941Z,11.10
2022-12-13T09:07:57.285Z,10.57
2022-12-13T09:08:59.721Z,10.25
2022-12-13T09:10:26.252Z,10.07
2022-12-13T09:11:33.132Z,9.65
2022-12-13T09:12:41.960Z,10.60
2022-12-13T09:13:45.291Z,10.02
2022-12-13T09:14:47.552Z,9.77
2022-12-13T09:15:49.860Z,10.18
2022-12-13T09:16:52.304Z,10.38
2022-12-13T09:17:55.130Z,9.60
2022-12-13T09:18:57.472Z,8.88
2022-12-13T09:19:59.786Z,9.35
2022-12-13T09:21:10.908Z,9.50
2022-12-13T09:22:14.850Z,9.18
2022-12-13T09:23:23.515Z,9.75
2022-12-13T09:24:26.508Z,9.23
2022-12-13T09:25:28.882Z,9.20
2022-12-13T09:26:39.076Z,9.48
2022-12-13T09:27:41.430Z,7.72
2022-12-13T09:28:43.779Z,7.60
2022-12-13T09:29:47.132Z,7.55
2022-12-13T09:30:49.562Z,7.90
2022-12-13T09:31:53.461Z,7.40
2022-12-13T09:32:56.584Z,8.13
2022-12-13T09:33:58.771Z,7.82
2022-12-13T09:35:00.999Z,7.70
2022-12-13T09:36:05.910Z,7.05
2022-12-13T09:37:08.948Z,7.35
2022-12-13T09:38:11.274Z,7.95
2022-12-13T09:39:13.510Z,7.82
2022-12-13T09:40:26.097Z,8.00
2022-12-13T09:41:32.701Z,7.38
2022-12-13T09:42:36.028Z,7.90
2022-12-13T09:43:45.409Z,7.78
2022-12-13T09:45:01.139Z,6.90
2022-12-13T09:46:13.416Z,7.57
2022-12-13T09:47:35.042Z,7.22
2022-12-13T09:48:38.350Z,7.30
2022-12-13T09:49:44.276Z,7.78
2022-12-13T09:51:16.534Z,7.82
2022-12-13T09:52:21.254Z,7.30
2022-12-13T09:53:24.454Z,7.13
2022-12-13T09:54:36.557Z,7.30
2022-12-13T09:55:49.702Z,6.10
2022-12-13T09:56:55.126Z,6.65
2022-12-13T09:58:00.176Z,7.07
2022-12-13T09:59:03.521Z,7.15
2022-12-13T10:00:08.379Z,6.78
2022-12-13T10:01:14.036Z,7.28
2022-12-13T10:02:30.460Z,6.88
2022-12-13T10:03:32.921Z,8.82
2022-12-13T10:04:35.241Z,6.85
2022-12-13T10:05:40.390Z,7.88
2022-12-13T10:06:42.879Z,6.93
2022-12-13T10:07:45.993Z,6.75
2022-12-13T10:08:58.083Z,8.07
2022-12-13T10:10:01.497Z,7.25
2022-12-13T10:11:03.904Z,8.27
2022-12-13T10:12:06.500Z,6.85
2022-12-13T10:13:38.184Z,6.57
2022-12-13T10:14:47.907Z,7.05
2022-12-13T10:16:07.993Z,6.78
2022-12-13T10:17:16.022Z,7.20
2022-12-13T10:18:33.005Z,7.75
2022-12-13T10:19:36.287Z,6.95
2022-12-13T10:20:39.062Z,6.72
2022-12-13T10:21:44.518Z,7.55
2022-12-13T10:23:07.949Z,7.57
2022-12-13T10:24:27.375Z,7.90
2022-12-13T10:25:50.690Z,7.68
2022-12-13T10:26:56.497Z,7.15
2022-12-13T10:27:59.495Z,6.70
2022-12-13T10:29:04.744Z,7.15
2022-12-13T10:30:16.037Z,6.45
2022-12-13T10:31:20.418Z,6.70
2022-12-13T10:32:22.863Z,6.45
2022-12-13T10:33:32.964Z,6.45
2022-12-13T10:34:36.525Z,7.18
2022-12-13T10:35:42.337Z,7.03
2022-12-13T10:36:45.370Z,6.78
2022-12-13T10:37:48.249Z,7.55
2022-12-13T10:38:50.796Z,6.38
2022-12-13T10:39:53.334Z,6.28
2022-12-13T10:40:55.843Z,7.15
2022-12-13T10:42:32.118Z,6.35
2022-12-13T10:43:36.176Z,5.70
2022-12-13T10:44:40.887Z,4.80
2022-12-13T10:45:59.927Z,5.50
2022-12-13T10:47:23.711Z,6.22
2022-12-13T10:48:32.032Z,6.55
2022-12-13T10:49:58.919Z,11.13
2022-12-13T10:51:14.148Z,14.63
2022-12-13T10:52:43.782Z,15.27
2022-12-13T10:53:49.702Z,9.70
2022-12-13T10:54:52.828Z,7.30
2022-12-13T10:56:04.667Z,6.55
2022-12-13T10:57:11.642Z,6.63
2022-12-13T10:58:20.783Z,6.57
2022-12-13T10:59:25.507Z,6.50
2022-12-13T11:00:44.925Z,6.13
2022-12-13T11:01:47.533Z,6.50
2022-12-13T11:02:55.619Z,6.90
2022-12-13T11:04:04.603Z,7.00
2022-12-13T11:05:29.930Z,6.30
2022-12-13T11:06:46.996Z,6.57
2022-12-13T11:07:49.896Z,6.90
2022-12-13T11:08:53.924Z,6.60
2022-12-13T11:10:05.234Z,6.15
2022-12-13T11:11:09.520Z,6.05
2022-12-13T11:12:20.546Z,6.70
2022-12-13T11:13:31.212Z,7.07
2022-12-13T11:14:38.957Z,6.03
2022-12-13T11:15:45.881Z,7.25
2022-12-13T11:16:54.685Z,5.85
2022-12-13T11:18:06.480Z,6.70
2022-12-13T11:19:35.384Z,6.15
2022-12-13T11:20:52.784Z,6.25
2022-12-13T11:21:56.850Z,6.28
2022-12-13T11:23:07.340Z,6.00
2022-12-13T11:24:16.552Z,5.40
2022-12-13T11:25:38.658Z,9.40
2022-12-13T11:26:52.547Z,19.33
2022-12-13T11:28:26.977Z,15.95
2022-12-13T11:29:47.893Z,10.85
2022-12-13T11:31:06.263Z,8.15
2022-12-13T11:32:22.423Z,7.22
2022-12-13T11:33:47.596Z,7.22
2022-12-13T11:34:59.429Z,5.80
2022-12-13T11:36:10.697Z,5.95
2022-12-13T11:37:28.784Z,7.07
2022-12-13T11:38:40.794Z,6.05
2022-12-13T11:39:53.144Z,5.50
2022-12-13T11:41:31.493Z,5.43
2022-12-13T11:42:46.506Z,4.83
2022-12-13T11:43:59.735Z,4.97
2022-12-13T11:45:22.913Z,4.53
2022-12-13T11:46:40.825Z,5.53
2022-12-13T11:48:20.792Z,5.25
2022-12-13T11:49:40.592Z,4.93
2022-12-13T11:50:49.276Z,4.75
2022-12-13T11:51:59.751Z,4.28
2022-12-13T11:53:30.352Z,4.63
2022-12-13T11:54:44.215Z,5.13
2022-12-13T11:56:07.529Z,5.43
2022-12-13T11:57:39.386Z,4.60
2022-12-13T11:59:19.107Z,3.80
2022-12-13T12:00:35.087Z,4.55
2022-12-13T12:01:40.536Z,4.65
2022-12-13T12:02:49.505Z,5.03
2022-12-13T12:04:04.891Z,4.90
2022-12-13T12:05:25.095Z,5.40
2022-12-13T12:06:39.249Z,4.75
2022-12-13T12:08:20.936Z,5.30
2022-12-13T12:09:15.612Z,5.00
2022-12-13T12:10:47.422Z,4.65
2022-12-13T12:12:00.547Z,5.28
2022-12-13T12:13:25.920Z,5.13
2022-12-13T12:14:49.762Z,4.82
2022-12-13T12:16:11.033Z,4.63
2022-12-13T12:17:15.989Z,4.88
2022-12-13T12:18:18.353Z,4.72
2022-12-13T12:19:23.981Z,5.60
2022-12-13T12:21:01.620Z,5.25
2022-12-13T12:22:31.129Z,5.72
2022-12-13T12:23:52.523Z,4.93
2022-12-13T12:25:27.400Z,7.38
2022-12-13T12:26:46.559Z,6.32
2022-12-13T12:28:46.032Z,5.68
2022-12-13T12:30:27.957Z,5.38
2022-12-13T12:31:54.704Z,4.90
2022-12-13T12:33:11.852Z,4.70
2022-12-13T12:34:38.346Z,4.40
2022-12-13T12:35:49.313Z,4.85
2022-12-13T12:37:06.631Z,4.63
2022-12-13T12:38:28.687Z,4.60
2022-12-13T12:39:31.029Z,5.05
2022-12-13T12:42:29.934Z,4.27
2022-12-13T12:43:41.147Z,4.28
2022-12-13T12:45:00.518Z,4.35
2022-12-13T12:46:21.322Z,4.60
2022-12-13T12:48:47.975Z,4.70
2022-12-13T12:49:41.062Z,5.10
2022-12-13T12:50:50.566Z,4.78
2022-12-13T12:52:01.592Z,161.27
2022-12-13T12:53:22.411Z,94.35
2022-12-13T12:54:48.700Z,91.50
2022-12-13T12:56:12.326Z,67.32
2022-12-13T12:57:37.435Z,49.45
2022-12-13T12:58:46.958Z,40.75
2022-12-13T13:00:09.739Z,40.10
2022-12-13T13:01:23.280Z,30.27
2022-12-13T13:02:39.445Z,28.90
2022-12-13T13:03:44.467Z,23.48
2022-12-13T13:04:57.017Z,18.80
2022-12-13T13:06:17.729Z,18.92
2022-12-13T13:07:39.642Z,19.08
2022-12-13T13:09:02.934Z,19.02
2022-12-13T13:10:15.907Z,21.40
2022-12-13T13:11:24.284Z,19.20
2022-12-13T13:12:30.915Z,19.30
2022-12-13T13:13:47.135Z,19.40
2022-12-13T13:14:49.756Z,18.73
2022-12-13T13:15:56.941Z,19.77
2022-12-13T13:17:18.760Z,18.35
2022-12-13T13:18:45.854Z,17.58
2022-12-13T13:19:58.996Z,19.00
2022-12-13T13:21:26.574Z,19.10
2022-12-13T13:22:32.199Z,18.80
2022-12-13T13:23:40.644Z,18.55
2022-12-13T13:25:00.883Z,18.38
2022-12-13T13:27:30.245Z,17.23
2022-12-13T13:28:32.665Z,16.33
2022-12-13T13:29:37.673Z,16.75
2022-12-13T13:31:08.877Z,16.15
2022-12-13T13:32:11.415Z,15.65
2022-12-13T13:33:49.141Z,17.50
2022-12-13T13:34:55.459Z,16.95
2022-12-13T13:36:03.882Z,16.80
2022-12-13T13:37:23.065Z,16.67
2022-12-13T13:38:47.122Z,14.95
2022-12-13T13:40:30.251Z,16.83
2022-12-13T13:42:00.194Z,13.98
2022-12-13T13:43:11.395Z,14.63
2022-12-13T13:44:45.963Z,13.38
2022-12-13T13:46:08.659Z,13.00
2022-12-13T13:47:14.601Z,13.07
2022-12-13T13:48:22.584Z,14.65
2022-12-13T13:49:25.277Z,13.38
2022-12-13T13:51:05.527Z,13.18
2022-12-13T13:52:26.383Z,13.90
2022-12-13T13:53:43.942Z,12.18
2022-12-13T13:55:03.222Z,11.35
2022-12-13T13:56:42.872Z,12.38
2022-12-13T13:58:10.067Z,12.02
2022-12-13T13:59:31.744Z,12.60
2022-12-13T14:00:47.406Z,11.57
2022-12-13T14:02:08.410Z,11.45
2022-12-13T14:04:08.301Z,11.32
2022-12-13T14:05:17.097Z,11.27
2022-12-13T14:06:31.311Z,11.05
2022-12-13T14:07:43.870Z,10.85
2022-12-13T14:09:14.769Z,11.35
2022-12-13T14:10:35.787Z,11.07
2022-12-13T14:11:58.327Z,10.50
2022-12-13T14:13:20.137Z,9.93
2022-12-13T14:14:40.991Z,10.80
2022-12-13T14:16:24.431Z,9.68
2022-12-13T14:17:58.723Z,10.02
2022-12-13T14:19:56.447Z,10.00
2022-12-13T14:21:40.759Z,9.80
2022-12-13T14:23:08.072Z,10.15
2022-12-13T14:24:41.903Z,10.05
2022-12-13T14:25:57.135Z,10.13
2022-12-13T14:27:26.884Z,8.77
2022-12-13T14:29:03.593Z,8.90
2022-12-13T14:30:28.011Z,8.25
2022-12-13T14:31:41.018Z,8.93
2022-12-13T14:32:43.458Z,8.63
2022-12-13T14:33:47.442Z,9.07
2022-12-13T14:34:50.095Z,9.07
2022-12-13T14:36:02.121Z,9.70
2022-12-13T14:37:18.515Z,9.52
2022-12-13T14:38:23.748Z,8.38
2022-12-13T14:39:29.254Z,9.73
2022-12-13T14:40:37.343Z,8.82
2022-12-13T14:41:56.641Z,9.05
2022-12-13T14:43:00.923Z,7.85
2022-12-13T14:44:31.512Z,8.52
2022-12-13T14:45:36.809Z,8.38
2022-12-13T14:46:52.575Z,8.95
2022-12-13T14:47:57.222Z,23.75
2022-12-13T14:49:01.628Z,36.95
2022-12-13T14:50:06.551Z,49.92
2022-12-13T14:51:35.886Z,29.50
2022-12-13T14:52:43.055Z,19.55
2022-12-13T14:53:45.337Z,15.63
2022-12-13T14:54:58.402Z,13.57
2022-12-13T14:56:06.085Z,11.05
2022-12-13T14:57:16.391Z,10.93
2022-12-13T14:58:21.166Z,9.73
2022-12-13T14:59:24.292Z,10.35
2022-12-13T15:00:42.221Z,9.98
2022-12-13T15:02:04.277Z,9.18
2022-12-13T15:03:07.312Z,9.70
2022-12-13T15:04:22.978Z,8.88
2022-12-13T15:05:50.475Z,8.73
2022-12-13T15:07:08.171Z,8.65
2022-12-13T15:08:15.446Z,8.80
2022-12-13T15:09:17.788Z,8.88
2022-12-13T15:10:41.667Z,8.02
2022-12-13T15:11:52.171Z,7.95
2022-12-13T15:12:55.547Z,7.97